createdAt,value
2017-08-13T00:01:03.883Z,1012.97
2017-08-13T00:02:13.846Z,1012.96
2017-08-13T00:05:56.450Z,1013.02
2017-08-13T00:09:38.761Z,1013.03
2017-08-13T00:10:48.428Z,1013.02
2017-08-13T00:11:58.678Z,1013.02
2017-08-13T00:13:08.626Z,1013.01
2017-08-13T00:14:18.877Z,1013.01
2017-08-13T00:15:28.820Z,1012.99
2017-08-13T00:19:11.431Z,1013.03
2017-08-13T00:24:05.165Z,1013.04
2017-08-13T00:25:15.100Z,1012.99
2017-08-13T00:26:25.347Z,1013.01
2017-08-13T00:27:34.978Z,1012.97
2017-08-13T00:28:44.899Z,1012.95
2017-08-13T00:29:54.528Z,1012.96
2017-08-13T00:31:04.774Z,1012.98
2017-08-13T00:32:15.004Z,1012.95
2017-08-13T00:33:25.253Z,1012.95
2017-08-13T00:34:35.481Z,1012.91
2017-08-13T00:35:45.421Z,1012.93
2017-08-13T00:36:55.679Z,1012.92
2017-08-13T00:38:05.934Z,1012.94
2017-08-13T00:39:15.870Z,1012.94
2017-08-13T00:40:25.810Z,1012.91
2017-08-13T00:41:36.042Z,1012.87
2017-08-13T00:42:45.347Z,1012.92
2017-08-13T00:43:55.589Z,1012.9
2017-08-13T00:45:05.245Z,1012.9
2017-08-13T00:46:15.165Z,1012.91
2017-08-13T00:47:24.790Z,1012.88
2017-08-13T00:48:34.408Z,1012.9
2017-08-13T00:49:44.656Z,1012.88
2017-08-13T00:50:54.285Z,1012.89
2017-08-13T00:52:04.239Z,1012.9
2017-08-13T00:53:14.184Z,1012.92
2017-08-13T00:54:23.814Z,1012.95
2017-08-13T00:55:33.757Z,1012.94
2017-08-13T00:56:44.004Z,1012.99
2017-08-13T00:57:53.633Z,1012.94
2017-08-13T00:59:03.875Z,1012.97
2017-08-13T01:00:13.815Z,1012.98
2017-08-13T01:01:23.766Z,1012.99
2017-08-13T01:02:33.726Z,1013
2017-08-13T01:03:43.953Z,1013.01
2017-08-13T01:04:53.582Z,1012.99
2017-08-13T01:06:03.828Z,1013
2017-08-13T01:07:13.463Z,1012.99
2017-08-13T01:08:23.106Z,1012.99
2017-08-13T01:09:32.766Z,1013
2017-08-13T01:10:42.702Z,1012.99
2017-08-13T01:11:52.624Z,1013
2017-08-13T01:13:02.872Z,1013.02
2017-08-13T01:14:12.797Z,1013.04
2017-08-13T01:15:23.040Z,1013
2017-08-13T01:16:32.979Z,1013.03
2017-08-13T01:17:42.902Z,1013.03
2017-08-13T01:18:52.836Z,1013.05
2017-08-13T01:20:02.147Z,1013.05
2017-08-13T01:21:11.797Z,1013.09
2017-08-13T01:22:21.728Z,1013.09
2017-08-13T01:23:31.988Z,1013.09
2017-08-13T01:24:41.916Z,1013.12
2017-08-13T01:25:51.832Z,1013.11
2017-08-13T01:27:02.079Z,1013.12
2017-08-13T01:28:12.350Z,1013.07
2017-08-13T01:29:22.602Z,1013.04
2017-08-13T01:30:32.248Z,1013.05
2017-08-13T01:31:42.177Z,1013.04
2017-08-13T01:32:52.413Z,1013.07
2017-08-13T01:34:01.738Z,1013.02
2017-08-13T01:35:11.380Z,1013.05
2017-08-13T01:36:20.698Z,1013.06
2017-08-13T01:37:30.296Z,1013.06
2017-08-13T01:38:40.236Z,1013.06
2017-08-13T01:39:50.475Z,1013.07
2017-08-13T01:40:59.825Z,1013.02
2017-08-13T01:42:09.452Z,1013.06
2017-08-13T01:43:19.685Z,1013.05
2017-08-13T01:44:29.931Z,1013.06
2017-08-13T01:45:39.874Z,1013.08
2017-08-13T01:46:48.926Z,1013.08
2017-08-13T01:47:58.883Z,1013.07
2017-08-13T01:49:08.530Z,1013.09
2017-08-13T01:50:18.145Z,1013.13
2017-08-13T01:51:28.081Z,1013.1
2017-08-13T01:52:38.317Z,1013.11
2017-08-13T01:53:48.543Z,1013.15
2017-08-13T01:54:58.162Z,1013.06
2017-08-13T01:56:07.806Z,1013.08
2017-08-13T01:57:18.032Z,1013.13
2017-08-13T01:58:28.283Z,1013.13
2017-08-13T01:59:38.553Z,1013.13
2017-08-13T02:00:48.535Z,1013.2
2017-08-13T02:01:58.777Z,1013.15
2017-08-13T02:03:08.716Z,1013.15
2017-08-13T02:04:19.030Z,1013.19
2017-08-13T02:05:28.982Z,1013.16
2017-08-13T02:06:38.904Z,1013.16
2017-08-13T02:07:49.145Z,1013.19
2017-08-13T02:08:58.746Z,1013.14
2017-08-13T02:10:08.372Z,1013.13
2017-08-13T02:11:18.596Z,1013.14
2017-08-13T02:12:28.844Z,1013.2
2017-08-13T02:13:38.785Z,1013.14
2017-08-13T02:14:48.707Z,1013.15
2017-08-13T02:15:58.317Z,1013.13
2017-08-13T02:17:08.240Z,1013.16
2017-08-13T02:18:18.503Z,1013.15
2017-08-13T02:19:28.119Z,1013.19
2017-08-13T02:20:38.429Z,1013.15
2017-08-13T02:21:48.380Z,1013.22
2017-08-13T02:22:57.999Z,1013.2
2017-08-13T02:24:08.284Z,1013.24
2017-08-13T02:25:18.522Z,1013.23
2017-08-13T02:26:28.754Z,1013.25
2017-08-13T02:27:39.086Z,1013.24
2017-08-13T02:28:48.735Z,1013.23
2017-08-13T02:29:58.672Z,1013.21
2017-08-13T02:31:08.607Z,1013.19
2017-08-13T02:32:18.908Z,1013.2
2017-08-13T02:33:28.842Z,1013.23
2017-08-13T02:34:39.072Z,1013.24
2017-08-13T02:35:49.295Z,1013.25
2017-08-13T02:36:58.614Z,1013.23
2017-08-13T02:38:08.584Z,1013.21
2017-08-13T02:39:18.815Z,1013.24
2017-08-13T02:40:28.752Z,1013.29
2017-08-13T02:41:38.997Z,1013.33
2017-08-13T02:42:48.938Z,1013.3
2017-08-13T02:43:58.570Z,1013.34
2017-08-13T02:45:08.838Z,1013.4
2017-08-13T02:46:19.083Z,1013.37
2017-08-13T02:47:28.398Z,1013.4
2017-08-13T02:48:38.327Z,1013.38
2017-08-13T02:49:48.590Z,1013.38
2017-08-13T02:50:58.821Z,1013.37
2017-08-13T02:52:09.050Z,1013.33
2017-08-13T02:53:19.290Z,1013.38
2017-08-13T02:54:29.214Z,1013.34
2017-08-13T02:55:38.861Z,1013.36
2017-08-13T02:56:48.785Z,1013.31
2017-08-13T02:57:58.725Z,1013.36
2017-08-13T02:59:08.959Z,1013.35
2017-08-13T03:00:18.893Z,1013.37
2017-08-13T03:01:28.855Z,1013.36
2017-08-13T03:02:39.082Z,1013.39
2017-08-13T03:03:49.323Z,1013.37
2017-08-13T03:04:59.945Z,1013.31
2017-08-13T03:06:10.189Z,1013.31
2017-08-13T03:07:19.823Z,1013.29
2017-08-13T03:08:29.450Z,1013.29
2017-08-13T03:09:39.691Z,1013.32
2017-08-13T03:10:49.623Z,1013.33
2017-08-13T03:11:59.548Z,1013.36
2017-08-13T03:13:09.161Z,1013.4
2017-08-13T03:14:18.775Z,1013.36
2017-08-13T03:15:28.743Z,1013.37
2017-08-13T03:16:38.686Z,1013.39
2017-08-13T03:17:48.648Z,1013.39
2017-08-13T03:18:58.561Z,1013.41
2017-08-13T03:20:08.174Z,1013.41
2017-08-13T03:21:18.442Z,1013.44
2017-08-13T03:22:28.709Z,1013.48
2017-08-13T03:23:38.950Z,1013.41
2017-08-13T03:24:48.882Z,1013.41
2017-08-13T03:25:58.817Z,1013.43
2017-08-13T03:27:09.063Z,1013.38
2017-08-13T03:28:19.291Z,1013.34
2017-08-13T03:29:29.541Z,1013.35
2017-08-13T03:30:39.185Z,1013.35
2017-08-13T03:31:48.515Z,1013.34
2017-08-13T03:32:58.787Z,1013.37
2017-08-13T03:34:08.099Z,1013.36
2017-08-13T03:35:18.014Z,1013.32
2017-08-13T03:36:28.256Z,1013.31
2017-08-13T03:37:37.908Z,1013.33
2017-08-13T03:38:48.128Z,1013.3
2017-08-13T03:39:58.052Z,1013.33
2017-08-13T03:41:07.991Z,1013.36
2017-08-13T03:42:17.925Z,1013.36
2017-08-13T03:43:28.168Z,1013.35
2017-08-13T03:44:38.436Z,1013.36
2017-08-13T03:45:48.349Z,1013.35
2017-08-13T03:46:58.587Z,1013.38
2017-08-13T03:48:08.526Z,1013.38
2017-08-13T03:49:18.486Z,1013.37
2017-08-13T03:50:28.773Z,1013.38
2017-08-13T03:51:39.021Z,1013.41
2017-08-13T03:52:49.245Z,1013.44
2017-08-13T03:53:59.175Z,1013.44
2017-08-13T03:55:09.414Z,1013.42
2017-08-13T03:56:19.030Z,1013.44
2017-08-13T03:57:29.275Z,1013.38
2017-08-13T03:58:39.214Z,1013.41
2017-08-13T03:59:48.821Z,1013.43
2017-08-13T04:00:59.070Z,1013.45
2017-08-13T04:02:09.000Z,1013.42
2017-08-13T04:03:18.957Z,1013.45
2017-08-13T04:04:28.896Z,1013.47
2017-08-13T04:05:38.504Z,1013.51
2017-08-13T04:06:48.727Z,1013.45
2017-08-13T04:07:58.647Z,1013.5
2017-08-13T04:09:08.279Z,1013.47
2017-08-13T04:10:18.505Z,1013.43
2017-08-13T04:11:28.737Z,1013.48
2017-08-13T04:12:38.392Z,1013.52
2017-08-13T04:13:48.319Z,1013.49
2017-08-13T04:14:57.923Z,1013.54
2017-08-13T04:16:06.919Z,1013.55
2017-08-13T04:17:16.856Z,1013.56
2017-08-13T04:18:26.465Z,1013.63
2017-08-13T04:19:36.106Z,1013.59
2017-08-13T04:20:46.343Z,1013.64
2017-08-13T04:21:56.574Z,1013.65
2017-08-13T04:23:06.523Z,1013.63
2017-08-13T04:24:16.146Z,1013.68
2017-08-13T04:25:25.455Z,1013.67
2017-08-13T04:26:35.065Z,1013.67
2017-08-13T04:27:45.287Z,1013.69
2017-08-13T04:28:55.221Z,1013.65
2017-08-13T04:30:05.161Z,1013.68
2017-08-13T04:31:15.412Z,1013.69
2017-08-13T04:32:25.638Z,1013.73
2017-08-13T04:33:35.863Z,1013.76
2017-08-13T04:34:45.483Z,1013.75
2017-08-13T04:35:55.723Z,1013.8
2017-08-13T04:37:05.972Z,1013.75
2017-08-13T04:38:16.208Z,1013.79
2017-08-13T04:39:25.864Z,1013.78
2017-08-13T04:40:35.812Z,1013.8
2017-08-13T04:41:45.741Z,1013.83
2017-08-13T04:42:55.970Z,1013.8
2017-08-13T04:44:05.591Z,1013.81
2017-08-13T04:45:15.543Z,1013.84
2017-08-13T04:46:25.792Z,1013.85
2017-08-13T04:47:35.742Z,1013.85
2017-08-13T04:48:45.696Z,1013.88
2017-08-13T04:49:55.322Z,1013.88
2017-08-13T04:51:05.254Z,1013.87
2017-08-13T04:52:15.488Z,1013.89
2017-08-13T04:53:25.439Z,1013.89
2017-08-13T04:54:35.688Z,1013.9
2017-08-13T04:55:45.309Z,1013.93
2017-08-13T04:56:55.241Z,1013.94
2017-08-13T04:58:04.870Z,1013.9
2017-08-13T04:59:14.802Z,1013.91
2017-08-13T05:00:24.418Z,1013.94
2017-08-13T05:01:33.741Z,1013.97
2017-08-13T05:02:43.993Z,1013.96
2017-08-13T05:03:53.615Z,1013.97
2017-08-13T05:05:03.571Z,1014.01
2017-08-13T05:06:13.184Z,1014
2017-08-13T05:07:23.140Z,1014.01
2017-08-13T05:08:33.381Z,1014.01
2017-08-13T05:09:43.309Z,1014.04
2017-08-13T05:10:53.245Z,1014.05
2017-08-13T05:12:03.185Z,1014.06
2017-08-13T05:13:12.488Z,1014.13
2017-08-13T05:14:22.421Z,1014.09
2017-08-13T05:15:32.663Z,1014.11
2017-08-13T05:16:42.598Z,1014.13
2017-08-13T05:17:52.533Z,1014.09
2017-08-13T05:19:02.444Z,1014.11
2017-08-13T05:20:12.691Z,1014.12
2017-08-13T05:21:22.614Z,1014.12
2017-08-13T05:22:32.534Z,1014.18
2017-08-13T05:23:42.785Z,1014.13
2017-08-13T05:24:53.028Z,1014.16
2017-08-13T05:26:02.955Z,1014.14
2017-08-13T05:27:12.883Z,1014.17
2017-08-13T05:28:23.137Z,1014.14
2017-08-13T05:29:32.750Z,1014.15
2017-08-13T05:30:42.061Z,1014.18
2017-08-13T05:31:51.989Z,1014.18
2017-08-13T05:33:02.240Z,1014.15
2017-08-13T05:34:11.855Z,1014.2
2017-08-13T05:35:21.486Z,1014.19
2017-08-13T05:36:31.131Z,1014.22
2017-08-13T05:37:41.366Z,1014.21
2017-08-13T05:38:51.593Z,1014.23
2017-08-13T05:40:01.223Z,1014.26
2017-08-13T05:41:11.472Z,1014.26
2017-08-13T05:42:21.413Z,1014.26
2017-08-13T05:43:31.658Z,1014.28
2017-08-13T05:44:41.291Z,1014.29
2017-08-13T05:45:50.923Z,1014.28
2017-08-13T05:47:00.537Z,1014.31
2017-08-13T05:48:10.166Z,1014.34
2017-08-13T05:49:19.791Z,1014.35
2017-08-13T05:50:30.027Z,1014.39
2017-08-13T05:51:39.957Z,1014.43
2017-08-13T05:52:49.572Z,1014.42
2017-08-13T05:53:59.496Z,1014.42
2017-08-13T05:55:09.747Z,1014.43
2017-08-13T05:56:19.689Z,1014.41
2017-08-13T05:57:29.600Z,1014.48
2017-08-13T05:58:39.827Z,1014.49
2017-08-13T05:59:50.078Z,1014.48
2017-08-13T06:01:00.005Z,1014.49
2017-08-13T06:02:10.239Z,1014.49
2017-08-13T06:03:19.884Z,1014.5
2017-08-13T06:04:29.818Z,1014.48
2017-08-13T06:05:39.732Z,1014.52
2017-08-13T06:06:49.653Z,1014.55
2017-08-13T06:07:59.572Z,1014.55
2017-08-13T06:09:09.494Z,1014.58
2017-08-13T06:10:19.105Z,1014.59
2017-08-13T06:11:28.720Z,1014.61
2017-08-13T06:12:38.956Z,1014.63
2017-08-13T06:13:48.878Z,1014.66
2017-08-13T06:14:58.502Z,1014.69
2017-08-13T06:16:08.760Z,1014.68
2017-08-13T06:17:18.382Z,1014.67
2017-08-13T06:18:28.632Z,1014.7
2017-08-13T06:19:37.952Z,1014.69
2017-08-13T06:20:48.190Z,1014.71
2017-08-13T06:21:58.112Z,1014.72
2017-08-13T06:23:08.027Z,1014.75
2017-08-13T06:24:17.659Z,1014.8
2017-08-13T06:25:27.889Z,1014.78
2017-08-13T06:26:37.817Z,1014.78
2017-08-13T06:27:47.743Z,1014.81
2017-08-13T06:28:57.671Z,1014.86
2017-08-13T06:30:07.590Z,1014.85
2017-08-13T06:31:17.834Z,1014.85
2017-08-13T06:32:28.094Z,1014.85
2017-08-13T06:33:38.358Z,1014.81
2017-08-13T06:34:48.284Z,1014.86
2017-08-13T06:35:58.234Z,1014.83
2017-08-13T06:37:07.858Z,1014.87
2017-08-13T06:38:17.788Z,1014.83
2017-08-13T06:39:27.734Z,1014.9
2017-08-13T06:40:37.654Z,1014.9
2017-08-13T06:41:47.293Z,1014.96
2017-08-13T06:42:57.626Z,1014.94
2017-08-13T06:44:07.777Z,1014.97
2017-08-13T06:45:18.291Z,1014.97
2017-08-13T06:46:28.212Z,1014.95
2017-08-13T06:47:40.091Z,1014.99
2017-08-13T06:48:50.063Z,1014.98
2017-08-13T06:49:59.713Z,1014.98
2017-08-13T06:51:09.336Z,1014.96
2017-08-13T06:52:18.671Z,1014.98
2017-08-13T06:53:28.917Z,1014.98
2017-08-13T06:54:38.579Z,1015.01
2017-08-13T06:55:49.268Z,1015.01
2017-08-13T06:56:59.211Z,1015.02
2017-08-13T06:58:10.438Z,1015.04
2017-08-13T06:59:21.447Z,1015.05
2017-08-13T07:00:31.380Z,1015.05
2017-08-13T07:01:41.617Z,1015.06
2017-08-13T07:02:51.496Z,1015.08
2017-08-13T07:04:01.737Z,1015.14
2017-08-13T07:05:11.686Z,1015.14
2017-08-13T07:06:21.315Z,1015.14
2017-08-13T07:07:30.943Z,1015.17
2017-08-13T07:08:40.248Z,1015.21
2017-08-13T07:09:50.177Z,1015.21
2017-08-13T07:11:00.105Z,1015.17
2017-08-13T07:12:10.347Z,1015.2
2017-08-13T07:13:20.269Z,1015.17
2017-08-13T07:14:30.495Z,1015.24
2017-08-13T07:15:40.740Z,1015.22
2017-08-13T07:16:50.665Z,1015.23
2017-08-13T07:18:00.887Z,1015.26
2017-08-13T07:19:10.507Z,1015.26
2017-08-13T07:20:20.447Z,1015.28
2017-08-13T07:21:30.374Z,1015.22
2017-08-13T07:22:40.301Z,1015.22
2017-08-13T07:23:50.239Z,1015.25
2017-08-13T07:25:00.464Z,1015.27
2017-08-13T07:26:10.393Z,1015.31
2017-08-13T07:27:20.329Z,1015.26
2017-08-13T07:28:30.264Z,1015.27
2017-08-13T07:29:40.499Z,1015.3
2017-08-13T07:30:50.426Z,1015.29
2017-08-13T07:32:00.669Z,1015.3
2017-08-13T07:33:10.612Z,1015.32
2017-08-13T07:34:20.870Z,1015.34
2017-08-13T07:35:30.846Z,1015.34
2017-08-13T07:36:40.486Z,1015.36
2017-08-13T07:37:50.120Z,1015.36
2017-08-13T07:39:00.050Z,1015.38
2017-08-13T07:40:10.285Z,1015.39
2017-08-13T07:41:19.904Z,1015.4
2017-08-13T07:42:29.834Z,1015.42
2017-08-13T07:43:39.756Z,1015.42
2017-08-13T07:44:49.375Z,1015.38
2017-08-13T07:45:59.321Z,1015.38
2017-08-13T07:47:09.562Z,1015.38
2017-08-13T07:48:18.906Z,1015.36
2017-08-13T07:49:28.862Z,1015.38
2017-08-13T07:50:39.094Z,1015.39
2017-08-13T07:51:49.550Z,1015.4
2017-08-13T07:52:59.525Z,1015.4
2017-08-13T07:54:09.769Z,1015.41
2017-08-13T07:55:20.020Z,1015.43
2017-08-13T07:56:30.300Z,1015.42
2017-08-13T07:57:39.946Z,1015.44
2017-08-13T07:58:49.570Z,1015.48
2017-08-13T07:59:59.527Z,1015.48
2017-08-13T08:01:09.161Z,1015.51
2017-08-13T08:02:19.391Z,1015.48
2017-08-13T08:03:29.331Z,1015.52
2017-08-13T08:04:39.587Z,1015.5
2017-08-13T08:05:49.838Z,1015.56
2017-08-13T08:06:59.781Z,1015.53
2017-08-13T08:08:09.739Z,1015.54
2017-08-13T08:09:19.702Z,1015.53
2017-08-13T08:10:29.670Z,1015.56
2017-08-13T08:11:39.293Z,1015.54
2017-08-13T08:12:49.550Z,1015.57
2017-08-13T08:13:59.792Z,1015.55
2017-08-13T08:15:09.744Z,1015.58
2017-08-13T08:16:19.692Z,1015.56
2017-08-13T08:17:29.931Z,1015.57
2017-08-13T08:18:39.584Z,1015.58
2017-08-13T08:19:49.849Z,1015.62
2017-08-13T08:21:00.103Z,1015.62
2017-08-13T08:22:10.046Z,1015.65
2017-08-13T08:23:19.365Z,1015.63
2017-08-13T08:24:29.025Z,1015.63
2017-08-13T08:25:39.054Z,1015.61
2017-08-13T08:26:48.981Z,1015.62
2017-08-13T08:27:59.378Z,1015.64
2017-08-13T08:29:09.333Z,1015.61
2017-08-13T08:30:19.271Z,1015.66
2017-08-13T08:31:29.192Z,1015.64
2017-08-13T08:32:39.130Z,1015.7
2017-08-13T08:33:49.380Z,1015.74
2017-08-13T08:34:59.319Z,1015.74
2017-08-13T08:36:09.581Z,1015.76
2017-08-13T08:37:19.214Z,1015.8
2017-08-13T08:38:28.844Z,1015.76
2017-08-13T08:39:38.794Z,1015.8
2017-08-13T08:40:49.056Z,1015.77
2017-08-13T08:41:58.977Z,1015.77
2017-08-13T08:43:08.316Z,1015.76
2017-08-13T08:44:18.284Z,1015.78
2017-08-13T08:45:30.016Z,1015.78
2017-08-13T08:46:40.873Z,1015.77
2017-08-13T08:47:51.360Z,1015.77
2017-08-13T08:49:01.641Z,1015.83
2017-08-13T08:50:11.600Z,1015.82
2017-08-13T08:51:21.254Z,1015.83
2017-08-13T08:52:30.314Z,1015.89
2017-08-13T08:53:39.953Z,1015.87
2017-08-13T08:54:50.228Z,1015.91
2017-08-13T08:56:00.199Z,1015.89
2017-08-13T08:57:10.429Z,1015.87
2017-08-13T08:58:20.073Z,1015.9
2017-08-13T08:59:30.027Z,1015.87
2017-08-13T09:00:39.978Z,1015.95
2017-08-13T09:01:50.238Z,1015.95
2017-08-13T09:03:00.492Z,1015.99
2017-08-13T09:04:10.417Z,1015.99
2017-08-13T09:05:20.038Z,1015.97
2017-08-13T09:06:29.969Z,1016.01
2017-08-13T09:07:39.934Z,1016
2017-08-13T09:08:49.879Z,1016
2017-08-13T09:10:00.154Z,1015.98
2017-08-13T09:11:10.100Z,1015.99
2017-08-13T09:12:19.737Z,1016.04
2017-08-13T09:13:29.721Z,1016.01
2017-08-13T09:14:39.667Z,1016.03
2017-08-13T09:15:49.909Z,1016.07
2017-08-13T09:16:59.850Z,1016.02
2017-08-13T09:18:10.110Z,1016.03
2017-08-13T09:19:20.356Z,1016.01
2017-08-13T09:20:30.612Z,1016.01
2017-08-13T09:21:39.951Z,1016
2017-08-13T09:22:49.924Z,1015.97
2017-08-13T09:24:00.188Z,1015.96
2017-08-13T09:25:10.153Z,1015.97
2017-08-13T09:26:20.391Z,1015.96
2017-08-13T09:27:29.714Z,1016
2017-08-13T09:28:39.953Z,1016
2017-08-13T09:29:49.568Z,1015.98
2017-08-13T09:30:59.821Z,1015.97
2017-08-13T09:32:10.063Z,1015.96
2017-08-13T09:33:20.001Z,1015.97
2017-08-13T09:34:29.944Z,1015.95
2017-08-13T09:35:40.436Z,1015.96
2017-08-13T09:36:50.085Z,1015.94
2017-08-13T09:38:00.353Z,1015.94
2017-08-13T09:39:10.616Z,1015.98
2017-08-13T09:40:20.547Z,1015.94
2017-08-13T09:41:30.478Z,1015.97
2017-08-13T09:42:40.731Z,1015.94
2017-08-13T09:43:50.990Z,1015.9
2017-08-13T09:45:00.947Z,1015.9
2017-08-13T09:46:11.229Z,1015.95
2017-08-13T09:47:21.160Z,1015.99
2017-08-13T09:48:31.113Z,1016.02
2017-08-13T09:49:41.078Z,1016.03
2017-08-13T09:50:51.003Z,1016
2017-08-13T09:52:00.320Z,1016.02
2017-08-13T09:53:10.550Z,1016.05
2017-08-13T09:54:20.811Z,1016.04
2017-08-13T09:55:30.133Z,1016.03
2017-08-13T09:56:40.093Z,1016.01
2017-08-13T09:57:49.715Z,1016.03
2017-08-13T09:58:59.948Z,1016.04
2017-08-13T10:00:09.914Z,1016.03
2017-08-13T10:01:19.542Z,1016.02
2017-08-13T10:02:29.767Z,1016.06
2017-08-13T10:03:39.387Z,1016.05
2017-08-13T10:04:49.336Z,1016.04
2017-08-13T10:05:58.946Z,1016.01
2017-08-13T10:07:09.190Z,1016.07
2017-08-13T10:08:19.418Z,1016.05
2017-08-13T10:09:29.690Z,1016.01
2017-08-13T10:10:39.333Z,1015.99
2017-08-13T10:11:48.976Z,1016.03
2017-08-13T10:12:59.583Z,1016.02
2017-08-13T10:14:09.823Z,1016.02
2017-08-13T10:15:20.100Z,1016.01
2017-08-13T10:16:30.116Z,1016
2017-08-13T10:17:40.056Z,1016.01
2017-08-13T10:18:49.366Z,1016.01
2017-08-13T10:19:59.829Z,1016.01
2017-08-13T10:21:09.462Z,1016.01
2017-08-13T10:22:19.842Z,1016.01
2017-08-13T10:23:30.771Z,1016
2017-08-13T10:24:40.440Z,1016.04
2017-08-13T10:25:50.789Z,1016.04
2017-08-13T10:27:00.731Z,1015.99
2017-08-13T10:28:10.691Z,1016.05
2017-08-13T10:29:20.614Z,1016
2017-08-13T10:30:30.914Z,1016.01
2017-08-13T10:31:40.533Z,1016.03
2017-08-13T10:32:49.520Z,1016
2017-08-13T10:33:59.783Z,1016.03
2017-08-13T10:35:10.023Z,1016
2017-08-13T10:36:20.262Z,1016.02
2017-08-13T10:37:29.895Z,1015.97
2017-08-13T10:38:39.565Z,1016.02
2017-08-13T10:39:49.507Z,1015.99
2017-08-13T10:40:59.425Z,1015.98
2017-08-13T10:42:09.094Z,1016.03
2017-08-13T10:43:18.412Z,1015.97
2017-08-13T10:44:28.754Z,1016
2017-08-13T10:45:38.694Z,1015.97
2017-08-13T10:46:48.936Z,1015.94
2017-08-13T10:47:58.915Z,1015.93
2017-08-13T10:49:09.631Z,1015.99
2017-08-13T10:50:19.914Z,1015.96
2017-08-13T10:51:29.882Z,1015.95
2017-08-13T10:52:39.555Z,1015.95
2017-08-13T10:53:49.834Z,1016
2017-08-13T10:55:00.108Z,1016.02
2017-08-13T10:56:10.362Z,1015.98
2017-08-13T10:57:19.976Z,1015.98
2017-08-13T10:58:30.227Z,1016
2017-08-13T10:59:40.472Z,1015.96
2017-08-13T11:00:50.755Z,1015.99
2017-08-13T11:02:01.023Z,1015.96
2017-08-13T11:03:11.286Z,1015.98
2017-08-13T11:04:21.210Z,1015.91
2017-08-13T11:05:31.502Z,1015.97
2017-08-13T11:06:41.759Z,1015.92
2017-08-13T11:07:51.711Z,1015.93
2017-08-13T11:09:01.647Z,1015.9
2017-08-13T11:10:11.904Z,1015.9
2017-08-13T11:11:22.152Z,1015.91
2017-08-13T11:12:32.082Z,1015.87
2017-08-13T11:13:41.718Z,1015.88
2017-08-13T11:14:51.649Z,1015.91
2017-08-13T11:16:01.601Z,1015.91
2017-08-13T11:17:11.574Z,1015.93
2017-08-13T11:18:21.827Z,1015.9
2017-08-13T11:19:32.081Z,1015.88
2017-08-13T11:20:42.034Z,1015.95
2017-08-13T11:21:51.677Z,1015.94
2017-08-13T11:23:01.931Z,1015.93
2017-08-13T11:24:11.870Z,1015.96
2017-08-13T11:25:21.519Z,1015.97
2017-08-13T11:26:31.779Z,1016
2017-08-13T11:27:41.722Z,1015.96
2017-08-13T11:28:51.682Z,1015.95
2017-08-13T11:30:01.345Z,1015.9
2017-08-13T11:31:11.303Z,1015.9
2017-08-13T11:32:21.579Z,1015.86
2017-08-13T11:33:31.542Z,1015.88
2017-08-13T11:34:41.789Z,1015.8
2017-08-13T11:35:51.441Z,1015.79
2017-08-13T11:37:01.693Z,1015.8
2017-08-13T11:38:11.959Z,1015.78
2017-08-13T11:39:21.890Z,1015.79
2017-08-13T11:40:31.529Z,1015.76
2017-08-13T11:41:41.791Z,1015.79
2017-08-13T11:42:51.134Z,1015.8
2017-08-13T11:44:01.412Z,1015.77
2017-08-13T11:45:11.728Z,1015.8
2017-08-13T11:46:21.377Z,1015.8
2017-08-13T11:47:31.036Z,1015.76
2017-08-13T11:48:40.988Z,1015.79
2017-08-13T11:49:50.311Z,1015.79
2017-08-13T11:51:00.580Z,1015.79
2017-08-13T11:52:10.828Z,1015.76
2017-08-13T11:53:20.172Z,1015.75
2017-08-13T11:54:30.421Z,1015.8
2017-08-13T11:55:40.365Z,1015.84
2017-08-13T11:56:49.982Z,1015.79
2017-08-13T11:58:00.061Z,1015.82
2017-08-13T11:59:09.996Z,1015.81
2017-08-13T12:00:19.973Z,1015.8
2017-08-13T12:01:29.943Z,1015.81
2017-08-13T12:02:40.205Z,1015.85
2017-08-13T12:03:50.140Z,1015.82
2017-08-13T12:05:00.081Z,1015.86
2017-08-13T12:06:10.060Z,1015.84
2017-08-13T12:07:21.128Z,1015.89
2017-08-13T12:08:31.115Z,1015.88
2017-08-13T12:09:41.121Z,1015.86
2017-08-13T12:10:51.399Z,1015.85
2017-08-13T12:12:01.682Z,1015.83
2017-08-13T12:13:11.918Z,1015.86
2017-08-13T12:14:21.845Z,1015.86
2017-08-13T12:15:32.093Z,1015.91
2017-08-13T12:16:42.018Z,1015.88
2017-08-13T12:17:51.968Z,1015.88
2017-08-13T12:19:01.612Z,1015.88
2017-08-13T12:20:11.893Z,1015.85
2017-08-13T12:21:21.544Z,1015.88
2017-08-13T12:22:30.900Z,1015.85
2017-08-13T12:23:41.157Z,1015.84
2017-08-13T12:24:51.145Z,1015.86
2017-08-13T12:26:01.427Z,1015.85
2017-08-13T12:27:11.382Z,1015.86
2017-08-13T12:28:21.625Z,1015.84
2017-08-13T12:29:31.265Z,1015.87
2017-08-13T12:30:40.897Z,1015.86
2017-08-13T12:31:51.163Z,1015.85
2017-08-13T12:33:01.159Z,1015.84
2017-08-13T12:34:11.101Z,1015.85
2017-08-13T12:35:20.744Z,1015.86
2017-08-13T12:36:30.389Z,1015.87
2017-08-13T12:37:39.722Z,1015.81
2017-08-13T12:38:49.053Z,1015.83
2017-08-13T12:39:58.686Z,1015.78
2017-08-13T12:41:08.626Z,1015.78
2017-08-13T12:42:18.861Z,1015.78
2017-08-13T12:43:29.097Z,1015.79
2017-08-13T12:44:38.723Z,1015.76
2017-08-13T12:45:48.659Z,1015.77
2017-08-13T12:46:58.916Z,1015.78
2017-08-13T12:48:09.164Z,1015.73
2017-08-13T12:49:19.130Z,1015.76
2017-08-13T12:50:28.773Z,1015.77
2017-08-13T12:51:38.408Z,1015.8
2017-08-13T12:52:48.341Z,1015.75
2017-08-13T12:53:57.991Z,1015.82
2017-08-13T12:55:07.618Z,1015.81
2017-08-13T12:56:17.573Z,1015.84
2017-08-13T12:57:27.884Z,1015.84
2017-08-13T12:58:38.754Z,1015.84
2017-08-13T12:59:48.699Z,1015.81
2017-08-13T13:00:58.631Z,1015.78
2017-08-13T13:02:08.266Z,1015.81
2017-08-13T13:03:17.945Z,1015.79
2017-08-13T13:04:28.546Z,1015.78
2017-08-13T13:05:38.873Z,1015.77
2017-08-13T13:06:49.147Z,1015.74
2017-08-13T13:07:59.438Z,1015.79
2017-08-13T13:09:09.719Z,1015.75
2017-08-13T13:10:19.683Z,1015.76
2017-08-13T13:11:29.625Z,1015.79
2017-08-13T13:12:39.870Z,1015.8
2017-08-13T13:13:49.243Z,1015.81
2017-08-13T13:14:59.197Z,1015.83
2017-08-13T13:16:09.454Z,1015.84
2017-08-13T13:17:19.079Z,1015.82
2017-08-13T13:18:28.707Z,1015.86
2017-08-13T13:19:38.953Z,1015.85
2017-08-13T13:20:48.904Z,1015.79
2017-08-13T13:21:58.836Z,1015.81
2017-08-13T13:23:08.519Z,1015.83
2017-08-13T13:24:19.133Z,1015.83
2017-08-13T13:25:28.482Z,1015.89
2017-08-13T13:26:38.104Z,1015.85
2017-08-13T13:27:47.931Z,1015.89
2017-08-13T13:28:57.497Z,1015.86
2017-08-13T13:30:07.461Z,1015.89
2017-08-13T13:31:17.081Z,1015.87
2017-08-13T13:32:26.721Z,1015.9
2017-08-13T13:33:36.657Z,1015.9
2017-08-13T13:34:46.963Z,1015.88
2017-08-13T13:35:55.991Z,1015.88
2017-08-13T13:37:05.724Z,1015.86
2017-08-13T13:38:15.653Z,1015.87
2017-08-13T13:39:25.285Z,1015.9
2017-08-13T13:40:34.901Z,1015.91
2017-08-13T13:41:45.146Z,1015.91
2017-08-13T13:42:55.148Z,1015.91
2017-08-13T13:44:05.227Z,1015.89
2017-08-13T13:45:15.481Z,1015.89
2017-08-13T13:46:25.729Z,1015.88
2017-08-13T13:47:35.374Z,1015.9
2017-08-13T13:48:45.023Z,1015.89
2017-08-13T13:49:55.506Z,1015.92
2017-08-13T13:51:05.429Z,1015.95
2017-08-13T13:52:15.391Z,1015.97
2017-08-13T13:53:25.034Z,1015.92
2017-08-13T13:54:34.666Z,1015.9
2017-08-13T13:55:44.581Z,1015.9
2017-08-13T13:56:54.531Z,1015.89
2017-08-13T13:58:04.489Z,1015.88
2017-08-13T13:59:14.429Z,1015.94
2017-08-13T14:00:24.687Z,1015.91
2017-08-13T14:01:34.010Z,1015.92
2017-08-13T14:02:44.274Z,1015.91
2017-08-13T14:03:54.690Z,1015.9
2017-08-13T14:05:04.643Z,1015.92
2017-08-13T14:06:15.448Z,1015.88
2017-08-13T14:07:25.396Z,1015.87
2017-08-13T14:08:35.373Z,1015.87
2017-08-13T14:09:45.341Z,1015.9
2017-08-13T14:10:55.450Z,1015.91
2017-08-13T14:12:06.491Z,1015.89
2017-08-13T14:13:16.127Z,1015.92
2017-08-13T14:14:26.058Z,1015.88
2017-08-13T14:15:35.983Z,1015.91
2017-08-13T14:16:45.919Z,1015.86
2017-08-13T14:17:56.410Z,1015.84
2017-08-13T14:19:06.037Z,1015.84
2017-08-13T14:20:15.652Z,1015.79
2017-08-13T14:21:26.527Z,1015.77
2017-08-13T14:22:38.246Z,1015.79